createdAt,value
2019-02-17T00:00:40.386Z,71.10
2019-02-17T00:03:17.363Z,71.10
2019-02-17T00:05:43.881Z,71.20
2019-02-17T00:08:10.211Z,71.30
2019-02-17T00:10:36.986Z,71.20
2019-02-17T00:13:03.488Z,71.60
2019-02-17T00:15:29.841Z,71.80
2019-02-17T00:17:56.149Z,71.90
2019-02-17T00:20:22.790Z,72.30
2019-02-17T00:22:49.094Z,72.40
2019-02-17T00:25:15.431Z,72.30
2019-02-17T00:27:42.166Z,72.20
2019-02-17T00:30:10.446Z,71.90
2019-02-17T00:32:36.875Z,71.80
2019-02-17T00:35:05.354Z,71.60
2019-02-17T00:37:31.617Z,71.50
2019-02-17T00:39:57.904Z,71.40
2019-02-17T00:42:24.249Z,71.30
2019-02-17T00:44:50.546Z,71.40
2019-02-17T00:47:16.868Z,71.40
2019-02-17T00:49:43.235Z,71.20
2019-02-17T00:52:09.565Z,71.20
2019-02-17T00:54:36.113Z,71.10
2019-02-17T00:57:04.093Z,71.20
2019-02-17T00:59:30.286Z,71.20
2019-02-17T01:01:56.598Z,71.30
2019-02-17T01:04:22.960Z,71.40
2019-02-17T01:06:49.291Z,71.40
2019-02-17T01:09:15.625Z,71.40
2019-02-17T01:11:42.549Z,71.30
2019-02-17T01:14:09.086Z,71.30
2019-02-17T01:16:35.433Z,71.90
2019-02-17T01:19:01.659Z,71.50
2019-02-17T01:21:28.094Z,71.50
2019-02-17T01:23:54.525Z,71.60
2019-02-17T01:26:20.794Z,71.70
2019-02-17T01:28:47.087Z,71.60
2019-02-17T01:31:13.500Z,71.70
2019-02-17T01:33:39.796Z,71.90
2019-02-17T01:36:06.176Z,71.90
2019-02-17T01:38:32.731Z,72.10
2019-02-17T01:41:00.770Z,72.40
2019-02-17T01:43:27.112Z,72.50
2019-02-17T01:45:53.318Z,72.40
2019-02-17T01:48:19.874Z,72.30
2019-02-17T01:50:46.103Z,72.30
2019-02-17T01:53:12.435Z,72.20
2019-02-17T01:55:38.699Z,72.30
2019-02-17T01:58:05.091Z,72.20
2019-02-17T02:00:31.367Z,72.00
2019-02-17T02:02:57.752Z,72.00
2019-02-17T02:05:24.082Z,72.00
2019-02-17T02:07:50.485Z,72.00
2019-02-17T02:10:16.845Z,72.00
2019-02-17T02:12:43.175Z,71.90
2019-02-17T02:15:10.428Z,71.90
2019-02-17T02:17:36.757Z,71.90
2019-02-17T02:20:06.545Z,72.00
2019-02-17T02:22:32.848Z,72.00
2019-02-17T02:24:59.229Z,72.00
2019-02-17T02:27:25.561Z,72.00
2019-02-17T02:29:51.890Z,72.70
2019-02-17T02:32:18.149Z,71.90
2019-02-17T02:34:44.771Z,72.00
2019-02-17T02:37:11.057Z,71.90
2019-02-17T02:39:37.414Z,71.90
2019-02-17T02:42:03.744Z,71.90
2019-02-17T02:44:30.237Z,72.00
2019-02-17T02:46:56.545Z,71.90
2019-02-17T02:49:22.858Z,72.00
2019-02-17T02:51:49.168Z,71.90
2019-02-17T02:54:15.806Z,71.90
2019-02-17T02:56:42.135Z,72.00
2019-02-17T02:59:08.350Z,71.90
2019-02-17T03:01:34.697Z,72.00
2019-02-17T03:04:02.872Z,72.10
2019-02-17T03:06:31.246Z,72.10
2019-02-17T03:08:57.538Z,71.90
2019-02-17T03:11:23.822Z,72.00
2019-02-17T03:13:50.235Z,71.90
2019-02-17T03:16:16.441Z,72.00
2019-02-17T03:18:42.746Z,72.00
2019-02-17T03:21:09.043Z,72.10
2019-02-17T03:23:35.459Z,72.20
2019-02-17T03:26:01.990Z,72.20
2019-02-17T03:28:28.321Z,72.50
2019-02-17T03:30:54.875Z,72.20
2019-02-17T03:33:21.196Z,72.30
2019-02-17T03:35:47.503Z,72.30
2019-02-17T03:38:13.794Z,73.10
2019-02-17T03:40:40.179Z,72.40
2019-02-17T03:43:06.502Z,72.30
2019-02-17T03:45:32.794Z,72.50
2019-02-17T03:47:59.063Z,72.70
2019-02-17T03:50:25.400Z,72.60
2019-02-17T03:52:51.662Z,72.70
2019-02-17T03:55:18.053Z,72.60
2019-02-17T03:57:44.277Z,72.60
2019-02-17T04:00:16.890Z,72.50
2019-02-17T04:02:38.680Z,72.60
2019-02-17T04:05:05.156Z,72.60
2019-02-17T04:07:31.456Z,72.60
2019-02-17T04:09:57.708Z,72.60
2019-02-17T04:12:24.421Z,73.40
2019-02-17T04:14:50.709Z,72.60
2019-02-17T04:17:18.724Z,72.60
2019-02-17T04:19:45.123Z,72.60
2019-02-17T04:22:11.605Z,72.40
2019-02-17T04:24:37.912Z,72.40
2019-02-17T04:27:04.308Z,72.50
2019-02-17T04:29:30.983Z,72.50
2019-02-17T04:31:57.241Z,72.50
2019-02-17T04:34:23.544Z,72.60
2019-02-17T04:36:49.855Z,72.50
2019-02-17T04:39:16.307Z,72.50
2019-02-17T04:41:42.583Z,72.40
2019-02-17T04:44:08.894Z,72.50
2019-02-17T04:46:35.197Z,72.40
2019-02-17T04:49:01.472Z,72.40
2019-02-17T04:51:27.855Z,72.50
2019-02-17T04:53:54.181Z,72.80
2019-02-17T04:56:20.435Z,73.40
2019-02-17T04:58:46.670Z,73.60
2019-02-17T05:01:12.966Z,73.60
2019-02-17T05:03:39.298Z,73.50
2019-02-17T05:06:07.265Z,73.40
2019-02-17T05:08:33.511Z,73.30
2019-02-17T05:10:59.836Z,73.40
2019-02-17T05:13:26.133Z,73.40
2019-02-17T05:15:52.514Z,73.60
2019-02-17T05:18:19.134Z,73.60
2019-02-17T05:20:45.414Z,73.50
2019-02-17T05:23:11.717Z,73.40
2019-02-17T05:25:38.117Z,73.40
2019-02-17T05:28:04.757Z,73.10
2019-02-17T05:30:31.045Z,72.90
2019-02-17T05:32:57.408Z,72.80
2019-02-17T05:35:23.737Z,72.80
2019-02-17T05:37:49.966Z,72.90
2019-02-17T05:40:16.539Z,73.00
2019-02-17T05:42:42.879Z,73.10
2019-02-17T05:45:09.366Z,73.10
2019-02-17T05:47:35.647Z,73.20
2019-02-17T05:50:02.043Z,73.40
2019-02-17T05:52:28.281Z,73.20
2019-02-17T05:54:54.589Z,73.20
2019-02-17T05:57:21.546Z,73.20
2019-02-17T05:59:47.831Z,73.20
2019-02-17T06:02:14.114Z,73.20
2019-02-17T06:04:40.622Z,73.20
2019-02-17T06:07:06.900Z,73.30
2019-02-17T06:09:33.283Z,73.40
2019-02-17T06:11:59.609Z,73.20
2019-02-17T06:14:25.944Z,73.20
2019-02-17T06:16:52.219Z,73.30
2019-02-17T06:19:18.499Z,73.20
2019-02-17T06:21:44.786Z,73.20
2019-02-17T06:24:11.117Z,73.20
2019-02-17T06:26:37.401Z,73.20
2019-02-17T06:29:03.720Z,73.20
2019-02-17T06:31:29.959Z,73.10
2019-02-17T06:33:56.266Z,73.20
2019-02-17T06:36:22.609Z,73.30
2019-02-17T06:38:48.884Z,73.50
2019-02-17T06:41:15.270Z,73.60
2019-02-17T06:43:41.580Z,73.70
2019-02-17T06:46:11.603Z,73.80
2019-02-17T06:48:38.186Z,73.90
2019-02-17T06:51:04.483Z,74.00
2019-02-17T06:53:31.144Z,73.70
2019-02-17T06:55:59.334Z,74.00
2019-02-17T06:58:25.631Z,74.10
2019-02-17T07:00:51.903Z,74.00
2019-02-17T07:03:18.283Z,74.20
2019-02-17T07:05:49.234Z,74.30
2019-02-17T07:08:15.614Z,74.40
2019-02-17T07:10:41.890Z,74.60
2019-02-17T07:13:08.318Z,74.70
2019-02-17T07:15:34.605Z,75.00
2019-02-17T07:18:00.894Z,75.40
2019-02-17T07:20:27.193Z,75.60
2019-02-17T07:22:53.477Z,75.80
2019-02-17T07:25:29.414Z,76.00
2019-02-17T07:27:47.897Z,76.10
2019-02-17T07:30:14.274Z,76.20
2019-02-17T07:32:40.702Z,76.40
2019-02-17T07:35:07.151Z,76.50
2019-02-17T07:37:34.050Z,76.70
2019-02-17T07:40:00.610Z,76.70
2019-02-17T07:42:26.882Z,76.70
2019-02-17T07:44:53.201Z,76.80
2019-02-17T07:47:19.584Z,76.80
2019-02-17T07:49:45.876Z,77.00
2019-02-17T07:52:12.270Z,77.00
2019-02-17T07:54:38.583Z,77.00
2019-02-17T07:57:04.923Z,77.20
2019-02-17T07:59:31.259Z,77.30
2019-02-17T08:01:57.582Z,77.50
2019-02-17T08:04:23.921Z,77.40
2019-02-17T08:06:50.139Z,77.60
2019-02-17T08:09:16.679Z,77.70
2019-02-17T08:11:43.007Z,78.10
2019-02-17T08:14:09.259Z,78.30
2019-02-17T08:16:35.891Z,78.60
2019-02-17T08:19:02.214Z,78.80
2019-02-17T08:21:28.486Z,79.20
2019-02-17T08:23:54.776Z,79.60
2019-02-17T08:26:21.083Z,80.10
2019-02-17T08:28:47.421Z,80.60
2019-02-17T08:31:13.672Z,81.10
2019-02-17T08:33:39.978Z,81.30
2019-02-17T08:36:06.299Z,81.50
2019-02-17T08:38:32.646Z,81.80
2019-02-17T08:41:00.750Z,82.10
2019-02-17T08:43:27.086Z,82.30
2019-02-17T08:45:53.581Z,82.30
2019-02-17T08:48:19.877Z,82.50
2019-02-17T08:50:46.236Z,82.50
2019-02-17T08:53:12.572Z,82.50
2019-02-17T08:55:38.825Z,82.60
2019-02-17T08:58:05.110Z,82.60
2019-02-17T09:00:31.805Z,82.50
2019-02-17T09:02:58.142Z,83.40
2019-02-17T09:05:24.524Z,82.30
2019-02-17T09:07:50.823Z,82.30
2019-02-17T09:10:17.115Z,82.20
2019-02-17T09:12:43.396Z,82.20
2019-02-17T09:15:10.709Z,82.30
2019-02-17T09:17:37.096Z,82.30
2019-02-17T09:20:05.484Z,82.30
2019-02-17T09:22:33.492Z,82.30
2019-02-17T09:24:59.877Z,82.10
2019-02-17T09:27:26.207Z,81.80
2019-02-17T09:29:52.641Z,81.80
2019-02-17T09:32:18.933Z,81.70
2019-02-17T09:34:45.255Z,81.50
2019-02-17T09:37:12.860Z,81.20
2019-02-17T09:39:39.192Z,81.10
2019-02-17T09:42:05.521Z,81.10
2019-02-17T09:44:31.757Z,81.30
2019-02-17T09:46:58.076Z,81.30
2019-02-17T09:49:24.409Z,80.90
2019-02-17T09:51:50.737Z,80.80
2019-02-17T09:54:17.068Z,80.40
2019-02-17T09:56:43.397Z,80.20
2019-02-17T09:59:09.728Z,78.80
2019-02-17T10:01:35.943Z,78.30
2019-02-17T10:04:02.388Z,78.20
2019-02-17T10:06:28.817Z,78.00
2019-02-17T10:08:55.151Z,77.90
2019-02-17T10:11:21.466Z,77.40
2019-02-17T10:13:47.989Z,77.00
2019-02-17T10:16:15.309Z,76.60
2019-02-17T10:18:41.825Z,76.80
2019-02-17T10:21:08.200Z,76.70
2019-02-17T10:23:34.565Z,76.30
2019-02-17T10:26:00.897Z,76.60
2019-02-17T10:28:27.199Z,76.30
2019-02-17T10:30:53.714Z,76.20
2019-02-17T10:33:20.200Z,75.80
2019-02-17T10:35:46.513Z,75.40
2019-02-17T10:38:12.920Z,75.50
2019-02-17T10:40:39.287Z,75.40
2019-02-17T10:43:05.621Z,75.10
2019-02-17T10:45:32.051Z,74.80
2019-02-17T10:48:00.265Z,75.00
2019-02-17T10:50:26.430Z,74.50
2019-02-17T10:52:52.782Z,74.00
2019-02-17T10:55:19.034Z,73.70
2019-02-17T10:57:45.342Z,73.40
2019-02-17T11:00:15.118Z,72.90
2019-02-17T11:02:47.258Z,72.80
2019-02-17T11:05:10.371Z,72.70
2019-02-17T11:07:36.650Z,72.50
2019-02-17T11:10:06.310Z,71.80
2019-02-17T11:12:32.639Z,70.50
2019-02-17T11:14:59.186Z,71.30
2019-02-17T11:17:25.504Z,71.00
2019-02-17T11:19:51.838Z,70.40
2019-02-17T11:22:23.111Z,70.00
2019-02-17T11:24:46.190Z,69.00
2019-02-17T11:27:12.567Z,69.40
2019-02-17T11:29:38.787Z,69.10
2019-02-17T11:32:05.126Z,68.90
2019-02-17T11:34:31.401Z,68.10
2019-02-17T11:36:57.678Z,67.80
2019-02-17T11:39:24.227Z,65.50
2019-02-17T11:41:50.548Z,65.80
2019-02-17T11:44:16.980Z,61.40
2019-02-17T11:46:43.312Z,63.00
2019-02-17T11:49:09.535Z,63.60
2019-02-17T11:51:35.847Z,62.90
2019-02-17T11:54:02.128Z,63.40
2019-02-17T11:56:28.444Z,62.00
2019-02-17T11:58:54.739Z,60.00
2019-02-17T12:01:21.054Z,61.30
2019-02-17T12:03:47.355Z,60.80
2019-02-17T12:06:13.851Z,60.40
2019-02-17T12:08:43.969Z,57.80
2019-02-17T12:11:10.207Z,58.60
2019-02-17T12:13:36.485Z,57.00
2019-02-17T12:16:03.013Z,58.80
2019-02-17T12:18:29.345Z,57.80
2019-02-17T12:20:57.721Z,58.70
2019-02-17T12:23:25.995Z,58.20
2019-02-17T12:25:56.933Z,57.60
2019-02-17T12:28:27.872Z,57.60
2019-02-17T12:30:54.109Z,57.70
2019-02-17T12:33:21.824Z,58.20
2019-02-17T12:35:48.618Z,56.10
2019-02-17T12:38:14.930Z,55.50
2019-02-17T12:40:41.268Z,56.40
2019-02-17T12:43:07.914Z,56.40
2019-02-17T12:45:34.152Z,56.20
2019-02-17T12:48:00.552Z,55.10
2019-02-17T12:50:26.999Z,55.00
2019-02-17T12:52:53.351Z,56.60
2019-02-17T12:55:19.660Z,56.80
2019-02-17T12:57:46.078Z,56.70
2019-02-17T13:00:15.054Z,55.40
2019-02-17T13:02:41.516Z,55.20
2019-02-17T13:05:08.672Z,55.90
2019-02-17T13:07:35.329Z,56.10
2019-02-17T13:10:01.683Z,55.70
2019-02-17T13:12:28.289Z,56.20
2019-02-17T13:14:54.701Z,56.10
2019-02-17T13:17:21.140Z,56.30
2019-02-17T13:19:47.572Z,56.20
2019-02-17T13:22:13.809Z,56.80
2019-02-17T13:24:40.329Z,55.40
2019-02-17T13:27:06.757Z,55.10
2019-02-17T13:29:33.094Z,55.80
2019-02-17T13:31:59.339Z,55.30
2019-02-17T13:34:25.857Z,55.40
2019-02-17T13:36:52.300Z,54.70
2019-02-17T13:39:18.633Z,55.70
2019-02-17T13:41:45.155Z,55.40
2019-02-17T13:44:11.467Z,54.80
2019-02-17T13:46:38.022Z,55.30
2019-02-17T13:49:04.557Z,54.90
2019-02-17T13:51:31.089Z,55.10
2019-02-17T13:53:57.526Z,55.50
2019-02-17T13:56:23.955Z,54.60
2019-02-17T13:58:50.286Z,54.80
2019-02-17T14:01:16.694Z,55.00
2019-02-17T14:03:48.814Z,55.00
2019-02-17T14:06:11.322Z,54.30
2019-02-17T14:08:38.069Z,54.60
2019-02-17T14:11:04.550Z,54.90
2019-02-17T14:13:31.032Z,53.60
2019-02-17T14:15:57.247Z,54.30
2019-02-17T14:18:23.691Z,54.50
2019-02-17T14:20:50.041Z,54.40
2019-02-17T14:23:17.480Z,53.80
2019-02-17T14:25:44.034Z,54.00
2019-02-17T14:28:10.450Z,51.70
2019-02-17T14:30:38.213Z,51.20
2019-02-17T14:33:04.641Z,51.90
2019-02-17T14:35:30.972Z,51.00
2019-02-17T14:37:58.119Z,51.50
2019-02-17T14:40:24.452Z,51.90
2019-02-17T14:42:50.783Z,52.40
2019-02-17T14:45:17.117Z,52.40
2019-02-17T14:47:43.584Z,50.90
2019-02-17T14:50:10.801Z,52.40
2019-02-17T14:52:37.231Z,52.70
2019-02-17T14:55:06.278Z,52.90
2019-02-17T14:57:32.656Z,52.60
2019-02-17T14:59:58.986Z,52.10
2019-02-17T15:02:25.253Z,52.40
2019-02-17T15:04:51.547Z,51.90
2019-02-17T15:07:17.927Z,50.90
2019-02-17T15:09:44.414Z,51.10
2019-02-17T15:12:10.671Z,51.50
2019-02-17T15:14:37.236Z,52.10
2019-02-17T15:17:03.459Z,52.40
2019-02-17T15:19:29.776Z,52.50
2019-02-17T15:21:56.166Z,52.40
2019-02-17T15:24:22.494Z,50.40
2019-02-17T15:26:48.741Z,51.30
2019-02-17T15:29:15.155Z,52.30
2019-02-17T15:31:41.359Z,52.60
2019-02-17T15:34:07.711Z,52.40
2019-02-17T15:36:34.452Z,52.20
2019-02-17T15:39:00.885Z,52.50
2019-02-17T15:41:27.208Z,52.10
2019-02-17T15:43:53.523Z,52.70
2019-02-17T15:46:20.112Z,52.70
2019-02-17T15:48:46.515Z,52.80
2019-02-17T15:51:14.683Z,53.10
2019-02-17T15:53:40.921Z,53.20
2019-02-17T15:56:07.247Z,53.30
2019-02-17T15:58:33.580Z,53.40
2019-02-17T16:00:59.915Z,53.50
2019-02-17T16:03:26.124Z,53.80
2019-02-17T16:05:52.366Z,54.00
2019-02-17T16:08:18.670Z,54.30
2019-02-17T16:10:45.029Z,54.30
2019-02-17T16:13:11.457Z,54.40
2019-02-17T16:15:37.790Z,54.70
2019-02-17T16:18:04.116Z,54.80
2019-02-17T16:20:30.655Z,55.00
2019-02-17T16:22:57.187Z,55.20
2019-02-17T16:25:23.517Z,55.30
2019-02-17T16:27:49.820Z,55.30
2019-02-17T16:30:21.930Z,55.60
2019-02-17T16:32:48.247Z,55.70
2019-02-17T16:35:14.779Z,55.70
2019-02-17T16:37:41.122Z,55.70
2019-02-17T16:40:10.709Z,55.60
2019-02-17T16:42:37.072Z,55.80
2019-02-17T16:45:06.656Z,56.00
2019-02-17T16:47:32.987Z,55.90
2019-02-17T16:49:59.323Z,56.10
2019-02-17T16:52:26.053Z,56.20
2019-02-17T16:54:52.383Z,56.30
2019-02-17T16:57:18.816Z,56.30
2019-02-17T16:59:45.146Z,57.00
2019-02-17T17:02:11.418Z,56.80
2019-02-17T17:04:47.835Z,56.70
2019-02-17T17:07:06.803Z,56.80
2019-02-17T17:09:33.235Z,57.10
2019-02-17T17:11:59.800Z,57.10
2019-02-17T17:14:26.303Z,57.20
2019-02-17T17:16:52.741Z,57.50
2019-02-17T17:19:19.168Z,57.50
2019-02-17T17:21:45.487Z,57.60
2019-02-17T17:24:11.932Z,57.70
2019-02-17T17:26:38.358Z,57.90
2019-02-17T17:29:04.646Z,58.10
2019-02-17T17:31:30.991Z,58.10
2019-02-17T17:33:57.310Z,58.10
2019-02-17T17:36:23.598Z,58.20
2019-02-17T17:38:49.901Z,58.30
2019-02-17T17:41:16.345Z,58.40
2019-02-17T17:43:42.675Z,58.40
2019-02-17T17:46:09.005Z,58.50
2019-02-17T17:48:35.540Z,58.50
2019-02-17T17:51:01.974Z,58.50
2019-02-17T17:53:30.178Z,58.70
2019-02-17T17:55:56.481Z,58.80
2019-02-17T17:58:22.807Z,58.90
2019-02-17T18:00:49.154Z,59.00
2019-02-17T18:03:15.397Z,58.90
2019-02-17T18:05:41.798Z,59.00
2019-02-17T18:08:08.050Z,59.10
2019-02-17T18:10:34.467Z,59.10
2019-02-17T18:13:00.794Z,59.10
2019-02-17T18:15:27.046Z,59.10
2019-02-17T18:17:54.828Z,59.10
2019-02-17T18:20:21.882Z,59.40
2019-02-17T18:22:48.159Z,59.70
2019-02-17T18:25:14.477Z,60.00
2019-02-17T18:27:40.881Z,60.10
2019-02-17T18:30:16.607Z,60.50
2019-02-17T18:32:43.787Z,60.70
2019-02-17T18:35:19.059Z,60.80
2019-02-17T18:37:38.473Z,61.10
2019-02-17T18:40:13.308Z,61.40
2019-02-17T18:42:39.606Z,61.50
2019-02-17T18:45:11.030Z,61.50
2019-02-17T18:47:37.394Z,61.60
2019-02-17T18:50:07.497Z,61.70
2019-02-17T18:52:33.862Z,61.90
2019-02-17T18:55:01.983Z,62.00
2019-02-17T18:57:28.210Z,62.10
2019-02-17T18:59:54.503Z,62.20
2019-02-17T19:02:20.925Z,62.40
2019-02-17T19:04:47.360Z,62.60
2019-02-17T19:07:13.688Z,62.80
2019-02-17T19:09:40.126Z,62.70
2019-02-17T19:12:06.394Z,62.90
2019-02-17T19:14:32.681Z,63.10
2019-02-17T19:16:59.111Z,63.20
2019-02-17T19:19:25.441Z,63.30
2019-02-17T19:21:51.670Z,63.10
2019-02-17T19:24:17.963Z,62.90
2019-02-17T19:26:44.330Z,63.20
2019-02-17T19:29:10.659Z,63.40
2019-02-17T19:31:36.870Z,64.60
2019-02-17T19:34:03.218Z,64.70
2019-02-17T19:36:29.549Z,65.00
2019-02-17T19:38:55.878Z,65.00
2019-02-17T19:41:22.313Z,65.20
2019-02-17T19:43:48.597Z,65.70
2019-02-17T19:46:14.975Z,66.30
2019-02-17T19:48:41.302Z,66.60
2019-02-17T19:51:07.634Z,66.60
2019-02-17T19:53:33.963Z,66.50
2019-02-17T19:56:00.279Z,66.50
2019-02-17T19:58:26.623Z,66.70
2019-02-17T20:00:52.953Z,66.50
2019-02-17T20:03:21.184Z,66.30
2019-02-17T20:05:52.458Z,66.40
2019-02-17T20:08:18.908Z,66.20
2019-02-17T20:10:45.442Z,66.10
2019-02-17T20:13:11.721Z,66.80
2019-02-17T20:15:38.019Z,66.10
2019-02-17T20:18:04.336Z,65.70
2019-02-17T20:20:30.631Z,65.60
2019-02-17T20:22:57.207Z,65.60
2019-02-17T20:25:23.629Z,65.50
2019-02-17T20:27:49.961Z,66.30
2019-02-17T20:30:16.512Z,65.70
2019-02-17T20:32:43.135Z,65.80
2019-02-17T20:35:09.410Z,65.80
2019-02-17T20:37:36.015Z,66.00
2019-02-17T20:40:05.505Z,65.90
2019-02-17T20:42:31.713Z,65.70
2019-02-17T20:44:57.989Z,65.50
2019-02-17T20:47:24.384Z,65.40
2019-02-17T20:49:50.664Z,65.20
2019-02-17T20:52:17.142Z,65.10
2019-02-17T20:54:43.437Z,64.80
2019-02-17T20:57:09.735Z,64.80
2019-02-17T20:59:36.053Z,64.60
2019-02-17T21:02:02.353Z,64.60
2019-02-17T21:04:28.822Z,64.60
2019-02-17T21:06:55.084Z,64.30
2019-02-17T21:09:21.466Z,64.30
2019-02-17T21:11:47.672Z,64.30
2019-02-17T21:14:14.037Z,64.20
2019-02-17T21:16:40.354Z,64.20
2019-02-17T21:19:06.789Z,64.00
2019-02-17T21:21:33.120Z,64.00
2019-02-17T21:23:59.452Z,64.00
2019-02-17T21:26:26.374Z,64.60
2019-02-17T21:28:53.353Z,64.60
2019-02-17T21:31:19.694Z,63.80
2019-02-17T21:33:45.994Z,63.80
2019-02-17T21:36:22.572Z,63.90
2019-02-17T21:38:40.418Z,63.80
2019-02-17T21:41:09.262Z,63.60
2019-02-17T21:43:35.486Z,63.50
2019-02-17T21:46:01.849Z,63.40
2019-02-17T21:48:28.107Z,63.40
2019-02-17T21:50:54.747Z,63.00
2019-02-17T21:53:21.146Z,62.80
2019-02-17T21:55:47.421Z,62.80
2019-02-17T21:58:13.731Z,62.70
2019-02-17T22:00:40.375Z,62.50
2019-02-17T22:03:06.773Z,62.70
2019-02-17T22:05:33.105Z,62.60
2019-02-17T22:07:59.458Z,62.70
2019-02-17T22:10:27.432Z,62.80
2019-02-17T22:12:53.635Z,63.00
2019-02-17T22:15:22.847Z,63.10
2019-02-17T22:17:49.604Z,63.40
2019-02-17T22:20:16.003Z,63.40
2019-02-17T22:22:42.460Z,63.30
2019-02-17T22:25:09.144Z,63.20
2019-02-17T22:27:35.460Z,63.30
2019-02-17T22:30:02.346Z,63.20
2019-02-17T22:32:29.157Z,63.10
2019-02-17T22:34:55.544Z,63.10
2019-02-17T22:37:21.880Z,62.90
2019-02-17T22:39:48.589Z,62.70
2019-02-17T22:42:14.918Z,62.70
2019-02-17T22:44:41.244Z,62.80
2019-02-17T22:47:07.632Z,62.40
2019-02-17T22:49:34.235Z,62.20
2019-02-17T22:52:00.440Z,62.30
2019-02-17T22:54:26.928Z,62.30
2019-02-17T22:56:54.530Z,62.50
2019-02-17T22:59:20.971Z,61.90
2019-02-17T23:01:47.609Z,61.80
2019-02-17T23:04:13.823Z,61.20
2019-02-17T23:06:40.166Z,61.60
2019-02-17T23:09:07.832Z,61.20
2019-02-17T23:11:34.236Z,61.30
2019-02-17T23:14:00.527Z,61.70
2019-02-17T23:16:26.922Z,61.60
2019-02-17T23:18:53.253Z,61.20
2019-02-17T23:21:19.533Z,61.40
2019-02-17T23:23:45.815Z,61.30
2019-02-17T23:26:12.119Z,60.90
2019-02-17T23:28:38.830Z,61.20
2019-02-17T23:31:05.110Z,61.20
2019-02-17T23:33:31.753Z,61.10
2019-02-17T23:35:58.078Z,60.90
2019-02-17T23:38:24.653Z,60.90
2019-02-17T23:40:51.043Z,61.00
2019-02-17T23:43:17.360Z,60.90
2019-02-17T23:45:44.639Z,61.00
2019-02-17T23:48:11.012Z,61.00
2019-02-17T23:50:37.388Z,61.20
2019-02-17T23:53:03.598Z,61.10
2019-02-17T23:55:30.048Z,61.10
2019-02-17T23:57:56.600Z,61.10
